sensor_id;sensor_type;location;lat;lon;timestamp;P1;durP1;ratioP1;P2;durP2;ratioP2
4992;SDS011;2514;53.524;10.166;2022-09-09T00:01:15;2.83;;;2.35;;
4992;SDS011;2514;53.524;10.166;2022-09-09T00:03:57;6.63;;;4.25;;
4992;SDS011;2514;53.524;10.166;2022-09-09T00:06:30;8.10;;;4.93;;
4992;SDS011;2514;53.524;10.166;2022-09-09T00:09:01;4.50;;;2.58;;
4992;SDS011;2514;53.524;10.166;2022-09-09T00:11:36;3.00;;;2.10;;
4992;SDS011;2514;53.524;10.166;2022-09-09T00:14:12;4.57;;;4.15;;
4992;SDS011;2514;53.524;10.166;2022-09-09T00:16:51;4.57;;;4.00;;
4992;SDS011;2514;53.524;10.166;2022-09-09T00:19:23;2.28;;;2.08;;
4992;SDS011;2514;53.524;10.166;2022-09-09T00:21:59;3.50;;;3.20;;
4992;SDS011;2514;53.524;10.166;2022-09-09T00:24:42;0.80;;;0.50;;
4992;SDS011;2514;53.524;10.166;2022-09-09T00:27:13;7.03;;;5.20;;
4992;SDS011;2514;53.524;10.166;2022-09-09T00:29:53;5.68;;;4.38;;
4992;SDS011;2514;53.524;10.166;2022-09-09T00:32:24;2.58;;;2.35;;
4992;SDS011;2514;53.524;10.166;2022-09-09T00:34:57;5.00;;;3.55;;
4992;SDS011;2514;53.524;10.166;2022-09-09T00:37:30;0.80;;;0.40;;
4992;SDS011;2514;53.524;10.166;2022-09-09T00:40:00;2.35;;;1.88;;
4992;SDS011;2514;53.524;10.166;2022-09-09T00:42:42;3.40;;;2.55;;
4992;SDS011;2514;53.524;10.166;2022-09-09T00:45:17;4.90;;;2.22;;
4992;SDS011;2514;53.524;10.166;2022-09-09T00:48:07;6.95;;;4.60;;
4992;SDS011;2514;53.524;10.166;2022-09-09T00:50:40;1.63;;;0.85;;
4992;SDS011;2514;53.524;10.166;2022-09-09T00:53:21;3.17;;;2.97;;
4992;SDS011;2514;53.524;10.166;2022-09-09T00:56:02;1.70;;;1.47;;
4992;SDS011;2514;53.524;10.166;2022-09-09T00:58:38;4.20;;;2.03;;
4992;SDS011;2514;53.524;10.166;2022-09-09T01:01:09;2.78;;;2.58;;
4992;SDS011;2514;53.524;10.166;2022-09-09T01:03:40;2.10;;;2.00;;
4992;SDS011;2514;53.524;10.166;2022-09-09T01:06:16;1.90;;;1.20;;
4992;SDS011;2514;53.524;10.166;2022-09-09T01:08:55;1.00;;;0.77;;
4992;SDS011;2514;53.524;10.166;2022-09-09T01:11:35;0.80;;;0.65;;
4992;SDS011;2514;53.524;10.166;2022-09-09T01:14:19;3.30;;;1.98;;
4992;SDS011;2514;53.524;10.166;2022-09-09T01:16:57;1.38;;;1.17;;
4992;SDS011;2514;53.524;10.166;2022-09-09T01:19:37;7.30;;;4.50;;
4992;SDS011;2514;53.524;10.166;2022-09-09T01:22:26;2.20;;;1.35;;
4992;SDS011;2514;53.524;10.166;2022-09-09T01:25:11;5.95;;;4.35;;
4992;SDS011;2514;53.524;10.166;2022-09-09T01:27:57;3.75;;;3.38;;
4992;SDS011;2514;53.524;10.166;2022-09-09T01:30:28;5.00;;;3.70;;
4992;SDS011;2514;53.524;10.166;2022-09-09T01:32:56;6.55;;;3.63;;
4992;SDS011;2514;53.524;10.166;2022-09-09T01:35:35;1.70;;;1.60;;
4992;SDS011;2514;53.524;10.166;2022-09-09T01:38:09;3.27;;;2.30;;
4992;SDS011;2514;53.524;10.166;2022-09-09T01:40:36;6.95;;;5.70;;
4992;SDS011;2514;53.524;10.166;2022-09-09T01:43:05;11.25;;;6.10;;
4992;SDS011;2514;53.524;10.166;2022-09-09T01:45:32;9.85;;;4.40;;
4992;SDS011;2514;53.524;10.166;2022-09-09T01:48:00;9.63;;;5.65;;
4992;SDS011;2514;53.524;10.166;2022-09-09T01:50:28;7.72;;;5.85;;
4992;SDS011;2514;53.524;10.166;2022-09-09T01:52:56;1.50;;;1.40;;
4992;SDS011;2514;53.524;10.166;2022-09-09T01:55:28;3.10;;;1.52;;
4992;SDS011;2514;53.524;10.166;2022-09-09T01:58:01;4.32;;;4.00;;
4992;SDS011;2514;53.524;10.166;2022-09-09T02:00:48;6.20;;;2.73;;
4992;SDS011;2514;53.524;10.166;2022-09-09T02:03:23;3.20;;;2.50;;
4992;SDS011;2514;53.524;10.166;2022-09-09T02:05:56;3.53;;;2.50;;
4992;SDS011;2514;53.524;10.166;2022-09-09T02:08:36;4.40;;;3.40;;
4992;SDS011;2514;53.524;10.166;2022-09-09T02:11:11;4.38;;;3.95;;
4992;SDS011;2514;53.524;10.166;2022-09-09T02:13:42;5.13;;;4.60;;
4992;SDS011;2514;53.524;10.166;2022-09-09T02:16:12;6.03;;;3.38;;
4992;SDS011;2514;53.524;10.166;2022-09-09T02:18:46;9.95;;;4.60;;
4992;SDS011;2514;53.524;10.166;2022-09-09T02:21:17;8.55;;;5.50;;
4992;SDS011;2514;53.524;10.166;2022-09-09T02:23:45;5.70;;;3.50;;
4992;SDS011;2514;53.524;10.166;2022-09-09T02:26:17;1.88;;;1.75;;
4992;SDS011;2514;53.524;10.166;2022-09-09T02:28:49;6.37;;;5.07;;
4992;SDS011;2514;53.524;10.166;2022-09-09T02:31:20;5.50;;;4.63;;
4992;SDS011;2514;53.524;10.166;2022-09-09T02:33:51;5.67;;;4.70;;
4992;SDS011;2514;53.524;10.166;2022-09-09T02:36:22;2.92;;;2.72;;
4992;SDS011;2514;53.524;10.166;2022-09-09T02:38:51;7.43;;;4.65;;
4992;SDS011;2514;53.524;10.166;2022-09-09T02:41:19;7.50;;;4.30;;
4992;SDS011;2514;53.524;10.166;2022-09-09T02:43:52;6.18;;;5.57;;
4992;SDS011;2514;53.524;10.166;2022-09-09T02:46:28;5.00;;;4.32;;
4992;SDS011;2514;53.524;10.166;2022-09-09T02:49:09;3.87;;;3.23;;
4992;SDS011;2514;53.524;10.166;2022-09-09T02:51:44;7.50;;;4.13;;
4992;SDS011;2514;53.524;10.166;2022-09-09T02:54:21;5.57;;;4.07;;
4992;SDS011;2514;53.524;10.166;2022-09-09T02:56:56;2.42;;;2.17;;
4992;SDS011;2514;53.524;10.166;2022-09-09T02:59:29;4.45;;;2.22;;
4992;SDS011;2514;53.524;10.166;2022-09-09T03:01:57;1.17;;;1.08;;
4992;SDS011;2514;53.524;10.166;2022-09-09T03:04:24;1.25;;;1.15;;
4992;SDS011;2514;53.524;10.166;2022-09-09T03:06:51;0.80;;;0.80;;
4992;SDS011;2514;53.524;10.166;2022-09-09T03:09:18;5.40;;;4.18;;
4992;SDS011;2514;53.524;10.166;2022-09-09T03:11:45;1.00;;;0.90;;
4992;SDS011;2514;53.524;10.166;2022-09-09T03:14:12;1.05;;;0.95;;
4992;SDS011;2514;53.524;10.166;2022-09-09T03:16:40;11.40;;;2.10;;
4992;SDS011;2514;53.524;10.166;2022-09-09T03:19:08;1.40;;;1.10;;
4992;SDS011;2514;53.524;10.166;2022-09-09T03:21:35;2.20;;;2.00;;
4992;SDS011;2514;53.524;10.166;2022-09-09T03:24:02;3.47;;;3.20;;
4992;SDS011;2514;53.524;10.166;2022-09-09T03:26:29;2.57;;;2.37;;
4992;SDS011;2514;53.524;10.166;2022-09-09T03:28:56;4.68;;;3.22;;
4992;SDS011;2514;53.524;10.166;2022-09-09T03:31:25;2.90;;;2.70;;
4992;SDS011;2514;53.524;10.166;2022-09-09T03:33:56;0.80;;;0.57;;
4992;SDS011;2514;53.524;10.166;2022-09-09T03:36:24;5.40;;;1.63;;
4992;SDS011;2514;53.524;10.166;2022-09-09T03:38:53;2.45;;;2.15;;
4992;SDS011;2514;53.524;10.166;2022-09-09T03:41:20;2.60;;;2.40;;
4992;SDS011;2514;53.524;10.166;2022-09-09T03:43:48;6.70;;;3.50;;
4992;SDS011;2514;53.524;10.166;2022-09-09T03:46:16;2.00;;;1.88;;
4992;SDS011;2514;53.524;10.166;2022-09-09T03:48:43;5.85;;;5.05;;
4992;SDS011;2514;53.524;10.166;2022-09-09T03:51:11;0.80;;;0.40;;
4992;SDS011;2514;53.524;10.166;2022-09-09T03:53:39;1.25;;;1.05;;
4992;SDS011;2514;53.524;10.166;2022-09-09T03:56:06;1.00;;;0.90;;
4992;SDS011;2514;53.524;10.166;2022-09-09T03:58:35;3.50;;;3.03;;
4992;SDS011;2514;53.524;10.166;2022-09-09T04:01:03;2.70;;;1.52;;
4992;SDS011;2514;53.524;10.166;2022-09-09T04:03:33;6.60;;;4.38;;
4992;SDS011;2514;53.524;10.166;2022-09-09T04:06:01;1.60;;;1.50;;
4992;SDS011;2514;53.524;10.166;2022-09-09T04:08:31;10.98;;;4.25;;
4992;SDS011;2514;53.524;10.166;2022-09-09T04:10:58;2.95;;;1.67;;
4992;SDS011;2514;53.524;10.166;2022-09-09T04:13:30;7.70;;;4.65;;
4992;SDS011;2514;53.524;10.166;2022-09-09T04:15:59;4.07;;;3.13;;
4992;SDS011;2514;53.524;10.166;2022-09-09T04:18:28;4.50;;;3.90;;
4992;SDS011;2514;53.524;10.166;2022-09-09T04:20:56;7.97;;;5.93;;
4992;SDS011;2514;53.524;10.166;2022-09-09T04:23:24;6.10;;;5.55;;
4992;SDS011;2514;53.524;10.166;2022-09-09T04:25:55;9.43;;;3.38;;
4992;SDS011;2514;53.524;10.166;2022-09-09T04:28:24;6.57;;;4.18;;
4992;SDS011;2514;53.524;10.166;2022-09-09T04:30:53;8.15;;;2.70;;
4992;SDS011;2514;53.524;10.166;2022-09-09T04:33:23;5.75;;;3.40;;
4992;SDS011;2514;53.524;10.166;2022-09-09T04:35:51;4.63;;;3.13;;
4992;SDS011;2514;53.524;10.166;2022-09-09T04:38:20;6.95;;;4.13;;
4992;SDS011;2514;53.524;10.166;2022-09-09T04:40:49;2.17;;;1.98;;
4992;SDS011;2514;53.524;10.166;2022-09-09T04:43:20;5.67;;;3.37;;
4992;SDS011;2514;53.524;10.166;2022-09-09T04:45:48;6.20;;;4.23;;
4992;SDS011;2514;53.524;10.166;2022-09-09T04:48:17;3.60;;;3.30;;
4992;SDS011;2514;53.524;10.166;2022-09-09T04:50:44;5.43;;;4.10;;
4992;SDS011;2514;53.524;10.166;2022-09-09T04:53:21;6.85;;;5.18;;
4992;SDS011;2514;53.524;10.166;2022-09-09T04:55:50;3.65;;;3.30;;
4992;SDS011;2514;53.524;10.166;2022-09-09T04:58:17;1.65;;;1.45;;
4992;SDS011;2514;53.524;10.166;2022-09-09T05:00:47;11.90;;;4.75;;
4992;SDS011;2514;53.524;10.166;2022-09-09T05:03:15;5.22;;;3.38;;
4992;SDS011;2514;53.524;10.166;2022-09-09T05:05:42;4.15;;;3.10;;
4992;SDS011;2514;53.524;10.166;2022-09-09T05:08:10;12.00;;;4.85;;
4992;SDS011;2514;53.524;10.166;2022-09-09T05:10:37;3.75;;;3.20;;
4992;SDS011;2514;53.524;10.166;2022-09-09T05:13:06;2.50;;;1.30;;
4992;SDS011;2514;53.524;10.166;2022-09-09T05:15:35;4.85;;;3.83;;
4992;SDS011;2514;53.524;10.166;2022-09-09T05:18:02;3.00;;;2.80;;
4992;SDS011;2514;53.524;10.166;2022-09-09T05:20:29;4.03;;;3.45;;
4992;SDS011;2514;53.524;10.166;2022-09-09T05:22:57;2.13;;;1.92;;
4992;SDS011;2514;53.524;10.166;2022-09-09T05:25:24;5.63;;;3.20;;
4992;SDS011;2514;53.524;10.166;2022-09-09T05:27:52;3.95;;;3.33;;
4992;SDS011;2514;53.524;10.166;2022-09-09T05:30:19;3.22;;;2.35;;
4992;SDS011;2514;53.524;10.166;2022-09-09T05:32:49;2.88;;;2.67;;
4992;SDS011;2514;53.524;10.166;2022-09-09T05:35:16;2.22;;;2.03;;
4992;SDS011;2514;53.524;10.166;2022-09-09T05:37:44;2.78;;;1.92;;
4992;SDS011;2514;53.524;10.166;2022-09-09T05:40:11;2.53;;;2.33;;
4992;SDS011;2514;53.524;10.166;2022-09-09T05:42:38;3.80;;;1.40;;
4992;SDS011;2514;53.524;10.166;2022-09-09T05:45:05;3.50;;;3.15;;
4992;SDS011;2514;53.524;10.166;2022-09-09T05:47:33;3.87;;;3.57;;
4992;SDS011;2514;53.524;10.166;2022-09-09T05:50:04;3.28;;;2.78;;
4992;SDS011;2514;53.524;10.166;2022-09-09T05:52:31;5.63;;;2.97;;
4992;SDS011;2514;53.524;10.166;2022-09-09T05:54:58;4.50;;;4.10;;
4992;SDS011;2514;53.524;10.166;2022-09-09T05:57:25;6.20;;;3.13;;
4992;SDS011;2514;53.524;10.166;2022-09-09T06:02:50;6.13;;;2.58;;
4992;SDS011;2514;53.524;10.166;2022-09-09T06:05:19;6.20;;;4.38;;
4992;SDS011;2514;53.524;10.166;2022-09-09T06:07:47;8.25;;;5.43;;
4992;SDS011;2514;53.524;10.166;2022-09-09T06:10:18;7.20;;;4.67;;
4992;SDS011;2514;53.524;10.166;2022-09-09T06:12:45;3.03;;;2.50;;
4992;SDS011;2514;53.524;10.166;2022-09-09T06:15:14;4.30;;;3.40;;
4992;SDS011;2514;53.524;10.166;2022-09-09T06:17:42;10.27;;;4.77;;
4992;SDS011;2514;53.524;10.166;2022-09-09T06:20:10;8.55;;;4.25;;
4992;SDS011;2514;53.524;10.166;2022-09-09T06:22:40;4.60;;;3.42;;
4992;SDS011;2514;53.524;10.166;2022-09-09T06:25:08;2.67;;;2.47;;
4992;SDS011;2514;53.524;10.166;2022-09-09T06:27:36;7.47;;;3.70;;
4992;SDS011;2514;53.524;10.166;2022-09-09T06:30:03;2.08;;;1.88;;
4992;SDS011;2514;53.524;10.166;2022-09-09T06:32:31;4.50;;;2.90;;
4992;SDS011;2514;53.524;10.166;2022-09-09T06:35:01;14.90;;;3.05;;
4992;SDS011;2514;53.524;10.166;2022-09-09T06:37:29;3.10;;;2.38;;
4992;SDS011;2514;53.524;10.166;2022-09-09T06:39:57;3.80;;;2.40;;
4992;SDS011;2514;53.524;10.166;2022-09-09T06:42:24;3.00;;;2.80;;
4992;SDS011;2514;53.524;10.166;2022-09-09T06:44:54;4.18;;;3.00;;
4992;SDS011;2514;53.524;10.166;2022-09-09T06:47:21;3.38;;;2.63;;
4992;SDS011;2514;53.524;10.166;2022-09-09T06:49:49;3.83;;;3.40;;
4992;SDS011;2514;53.524;10.166;2022-09-09T06:52:16;5.88;;;3.67;;
4992;SDS011;2514;53.524;10.166;2022-09-09T06:54:43;5.30;;;1.98;;
4992;SDS011;2514;53.524;10.166;2022-09-09T06:57:11;6.18;;;3.58;;
4992;SDS011;2514;53.524;10.166;2022-09-09T06:59:38;2.30;;;1.30;;
4992;SDS011;2514;53.524;10.166;2022-09-09T07:02:07;4.10;;;3.10;;
4992;SDS011;2514;53.524;10.166;2022-09-09T07:04:34;3.78;;;3.10;;
4992;SDS011;2514;53.524;10.166;2022-09-09T07:07:02;3.50;;;2.30;;
4992;SDS011;2514;53.524;10.166;2022-09-09T07:09:29;1.52;;;1.42;;
4992;SDS011;2514;53.524;10.166;2022-09-09T07:11:56;1.10;;;0.70;;
4992;SDS011;2514;53.524;10.166;2022-09-09T07:14:25;2.83;;;2.00;;
4992;SDS011;2514;53.524;10.166;2022-09-09T07:16:52;3.00;;;2.80;;
4992;SDS011;2514;53.524;10.166;2022-09-09T07:19:20;8.30;;;2.72;;
4992;SDS011;2514;53.524;10.166;2022-09-09T07:21:47;10.00;;;3.33;;
4992;SDS011;2514;53.524;10.166;2022-09-09T07:24:14;3.95;;;1.65;;
4992;SDS011;2514;53.524;10.166;2022-09-09T07:26:41;2.20;;;2.00;;
4992;SDS011;2514;53.524;10.166;2022-09-09T07:29:09;2.50;;;2.23;;
4992;SDS011;2514;53.524;10.166;2022-09-09T07:31:41;0.90;;;0.60;;
4992;SDS011;2514;53.524;10.166;2022-09-09T07:34:08;1.40;;;1.30;;
4992;SDS011;2514;53.524;10.166;2022-09-09T07:36:36;1.48;;;1.35;;
4992;SDS011;2514;53.524;10.166;2022-09-09T07:39:05;1.20;;;0.93;;
4992;SDS011;2514;53.524;10.166;2022-09-09T07:41:35;1.88;;;1.55;;
4992;SDS011;2514;53.524;10.166;2022-09-09T07:44:05;1.90;;;1.33;;
4992;SDS011;2514;53.524;10.166;2022-09-09T07:46:34;1.50;;;1.40;;
4992;SDS011;2514;53.524;10.166;2022-09-09T07:49:03;2.30;;;1.20;;
4992;SDS011;2514;53.524;10.166;2022-09-09T07:51:30;3.20;;;1.50;;
4992;SDS011;2514;53.524;10.166;2022-09-09T07:54:00;3.40;;;1.48;;
4992;SDS011;2514;53.524;10.166;2022-09-09T07:56:29;0.93;;;0.83;;
4992;SDS011;2514;53.524;10.166;2022-09-09T07:58:58;2.00;;;0.90;;
4992;SDS011;2514;53.524;10.166;2022-09-09T08:01:33;1.20;;;1.10;;
4992;SDS011;2514;53.524;10.166;2022-09-09T08:04:06;1.40;;;1.30;;
4992;SDS011;2514;53.524;10.166;2022-09-09T08:06:36;1.15;;;1.05;;
4992;SDS011;2514;53.524;10.166;2022-09-09T08:09:07;3.70;;;0.97;;
4992;SDS011;2514;53.524;10.166;2022-09-09T08:11:35;1.60;;;1.30;;
4992;SDS011;2514;53.524;10.166;2022-09-09T08:14:02;1.30;;;0.80;;
4992;SDS011;2514;53.524;10.166;2022-09-09T08:16:31;0.90;;;0.80;;
4992;SDS011;2514;53.524;10.166;2022-09-09T08:19:01;1.00;;;0.90;;
4992;SDS011;2514;53.524;10.166;2022-09-09T08:21:31;1.90;;;1.00;;
4992;SDS011;2514;53.524;10.166;2022-09-09T08:24:00;3.03;;;1.40;;
4992;SDS011;2514;53.524;10.166;2022-09-09T08:26:30;1.27;;;1.17;;
4992;SDS011;2514;53.524;10.166;2022-09-09T08:29:00;5.70;;;1.35;;
4992;SDS011;2514;53.524;10.166;2022-09-09T08:31:29;1.48;;;1.10;;
4992;SDS011;2514;53.524;10.166;2022-09-09T08:33:59;7.90;;;1.30;;
4992;SDS011;2514;53.524;10.166;2022-09-09T08:36:29;0.90;;;0.60;;
4992;SDS011;2514;53.524;10.166;2022-09-09T08:39:02;6.65;;;1.42;;
4992;SDS011;2514;53.524;10.166;2022-09-09T08:41:35;1.30;;;0.90;;
4992;SDS011;2514;53.524;10.166;2022-09-09T08:44:32;1.10;;;0.80;;
4992;SDS011;2514;53.524;10.166;2022-09-09T08:47:27;0.90;;;0.55;;
4992;SDS011;2514;53.524;10.166;2022-09-09T08:50:11;3.60;;;2.10;;
4992;SDS011;2514;53.524;10.166;2022-09-09T08:52:49;1.60;;;0.87;;
4992;SDS011;2514;53.524;10.166;2022-09-09T08:55:24;1.10;;;0.70;;
4992;SDS011;2514;53.524;10.166;2022-09-09T08:57:59;1.90;;;1.03;;
4992;SDS011;2514;53.524;10.166;2022-09-09T09:00:36;4.50;;;1.15;;
4992;SDS011;2514;53.524;10.166;2022-09-09T09:03:22;1.40;;;1.00;;
4992;SDS011;2514;53.524;10.166;2022-09-09T09:06:01;0.90;;;0.80;;
4992;SDS011;2514;53.524;10.166;2022-09-09T09:08:41;1.23;;;0.75;;
4992;SDS011;2514;53.524;10.166;2022-09-09T09:11:16;1.40;;;1.10;;
4992;SDS011;2514;53.524;10.166;2022-09-09T09:13:44;0.98;;;0.70;;
4992;SDS011;2514;53.524;10.166;2022-09-09T09:16:21;1.20;;;0.80;;
4992;SDS011;2514;53.524;10.166;2022-09-09T09:18:53;2.10;;;1.10;;
4992;SDS011;2514;53.524;10.166;2022-09-09T09:21:21;1.20;;;0.60;;
4992;SDS011;2514;53.524;10.166;2022-09-09T09:24:04;7.20;;;1.73;;
4992;SDS011;2514;53.524;10.166;2022-09-09T09:26:41;2.40;;;1.10;;
4992;SDS011;2514;53.524;10.166;2022-09-09T09:29:11;3.00;;;0.70;;
4992;SDS011;2514;53.524;10.166;2022-09-09T09:31:41;0.90;;;0.53;;
4992;SDS011;2514;53.524;10.166;2022-09-09T09:34:13;0.90;;;0.70;;
4992;SDS011;2514;53.524;10.166;2022-09-09T09:36:41;1.30;;;0.80;;
4992;SDS011;2514;53.524;10.166;2022-09-09T09:39:23;1.20;;;0.70;;
4992;SDS011;2514;53.524;10.166;2022-09-09T09:41:51;1.58;;;0.88;;
4992;SDS011;2514;53.524;10.166;2022-09-09T09:44:22;1.30;;;0.90;;
4992;SDS011;2514;53.524;10.166;2022-09-09T09:47:04;1.10;;;0.80;;
4992;SDS011;2514;53.524;10.166;2022-09-09T09:49:33;2.38;;;1.30;;
4992;SDS011;2514;53.524;10.166;2022-09-09T09:52:00;2.17;;;0.85;;
4992;SDS011;2514;53.524;10.166;2022-09-09T09:54:30;11.80;;;1.30;;
4992;SDS011;2514;53.524;10.166;2022-09-09T09:57:07;1.38;;;0.88;;
4992;SDS011;2514;53.524;10.166;2022-09-09T09:59:36;1.80;;;0.80;;
4992;SDS011;2514;53.524;10.166;2022-09-09T10:02:15;1.10;;;0.70;;
4992;SDS011;2514;53.524;10.166;2022-09-09T10:04:46;0.90;;;0.50;;
4992;SDS011;2514;53.524;10.166;2022-09-09T10:07:17;0.93;;;0.60;;
4992;SDS011;2514;53.524;10.166;2022-09-09T10:09:48;1.40;;;0.63;;
4992;SDS011;2514;53.524;10.166;2022-09-09T10:12:22;1.02;;;0.68;;
4992;SDS011;2514;53.524;10.166;2022-09-09T10:15:06;0.90;;;0.50;;
4992;SDS011;2514;53.524;10.166;2022-09-09T10:17:50;1.10;;;0.60;;
4992;SDS011;2514;53.524;10.166;2022-09-09T10:20:32;2.10;;;0.70;;
4992;SDS011;2514;53.524;10.166;2022-09-09T10:23:12;2.40;;;0.83;;
4992;SDS011;2514;53.524;10.166;2022-09-09T10:26:02;1.20;;;0.80;;
4992;SDS011;2514;53.524;10.166;2022-09-09T10:28:54;0.90;;;0.40;;
4992;SDS011;2514;53.524;10.166;2022-09-09T10:31:48;0.90;;;0.40;;
4992;SDS011;2514;53.524;10.166;2022-09-09T10:34:31;1.10;;;0.80;;
4992;SDS011;2514;53.524;10.166;2022-09-09T10:37:19;1.00;;;0.60;;
4992;SDS011;2514;53.524;10.166;2022-09-09T10:39:59;1.00;;;0.60;;
4992;SDS011;2514;53.524;10.166;2022-09-09T10:42:43;2.90;;;1.00;;
4992;SDS011;2514;53.524;10.166;2022-09-09T10:45:15;1.20;;;0.80;;
4992;SDS011;2514;53.524;10.166;2022-09-09T10:47:50;1.40;;;0.90;;
4992;SDS011;2514;53.524;10.166;2022-09-09T10:50:44;0.90;;;0.40;;
4992;SDS011;2514;53.524;10.166;2022-09-09T10:53:21;1.20;;;0.90;;
4992;SDS011;2514;53.524;10.166;2022-09-09T10:56:01;1.70;;;0.70;;
4992;SDS011;2514;53.524;10.166;2022-09-09T10:58:38;1.00;;;0.70;;
4992;SDS011;2514;53.524;10.166;2022-09-09T11:01:14;3.20;;;1.10;;
4992;SDS011;2514;53.524;10.166;2022-09-09T11:03:47;1.40;;;0.90;;
4992;SDS011;2514;53.524;10.166;2022-09-09T11:06:25;1.10;;;0.80;;
4992;SDS011;2514;53.524;10.166;2022-09-09T11:08:59;8.60;;;1.77;;
4992;SDS011;2514;53.524;10.166;2022-09-09T11:11:32;1.10;;;0.60;;
4992;SDS011;2514;53.524;10.166;2022-09-09T11:14:05;0.90;;;0.50;;
4992;SDS011;2514;53.524;10.166;2022-09-09T11:16:42;1.10;;;0.70;;
4992;SDS011;2514;53.524;10.166;2022-09-09T11:19:15;1.00;;;0.60;;
4992;SDS011;2514;53.524;10.166;2022-09-09T11:21:49;2.90;;;1.40;;
4992;SDS011;2514;53.524;10.166;2022-09-09T11:24:20;1.90;;;0.75;;
4992;SDS011;2514;53.524;10.166;2022-09-09T11:26:54;1.00;;;0.60;;
4992;SDS011;2514;53.524;10.166;2022-09-09T11:29:32;1.00;;;0.50;;
4992;SDS011;2514;53.524;10.166;2022-09-09T11:32:59;1.40;;;0.70;;
4992;SDS011;2514;53.524;10.166;2022-09-09T11:36:25;1.10;;;0.50;;
4992;SDS011;2514;53.524;10.166;2022-09-09T11:39:33;2.90;;;1.20;;
4992;SDS011;2514;53.524;10.166;2022-09-09T11:42:26;0.90;;;0.50;;
4992;SDS011;2514;53.524;10.166;2022-09-09T11:44:55;2.10;;;1.00;;
4992;SDS011;2514;53.524;10.166;2022-09-09T11:47:23;6.85;;;1.52;;
4992;SDS011;2514;53.524;10.166;2022-09-09T11:49:55;1.40;;;0.80;;
4992;SDS011;2514;53.524;10.166;2022-09-09T11:52:37;1.50;;;1.10;;
4992;SDS011;2514;53.524;10.166;2022-09-09T11:55:09;0.95;;;0.55;;
4992;SDS011;2514;53.524;10.166;2022-09-09T11:57:37;2.65;;;1.10;;
4992;SDS011;2514;53.524;10.166;2022-09-09T12:00:27;1.10;;;0.88;;
4992;SDS011;2514;53.524;10.166;2022-09-09T12:02:59;0.90;;;0.50;;
4992;SDS011;2514;53.524;10.166;2022-09-09T12:05:35;1.10;;;0.70;;
4992;SDS011;2514;53.524;10.166;2022-09-09T12:08:06;1.20;;;0.82;;
4992;SDS011;2514;53.524;10.166;2022-09-09T12:10:38;1.77;;;1.08;;
4992;SDS011;2514;53.524;10.166;2022-09-09T12:13:15;1.40;;;1.00;;
4992;SDS011;2514;53.524;10.166;2022-09-09T12:15:49;3.90;;;1.27;;
4992;SDS011;2514;53.524;10.166;2022-09-09T12:18:21;3.28;;;1.33;;
4992;SDS011;2514;53.524;10.166;2022-09-09T12:20:52;1.65;;;1.15;;
4992;SDS011;2514;53.524;10.166;2022-09-09T12:23:31;1.10;;;0.98;;
4992;SDS011;2514;53.524;10.166;2022-09-09T12:26:20;5.40;;;0.73;;
4992;SDS011;2514;53.524;10.166;2022-09-09T12:28:57;1.50;;;1.30;;
4992;SDS011;2514;53.524;10.166;2022-09-09T12:31:39;0.90;;;0.50;;
4992;SDS011;2514;53.524;10.166;2022-09-09T12:34:14;1.30;;;1.00;;
4992;SDS011;2514;53.524;10.166;2022-09-09T12:36:44;1.80;;;1.30;;
4992;SDS011;2514;53.524;10.166;2022-09-09T12:39:19;1.42;;;1.00;;
4992;SDS011;2514;53.524;10.166;2022-09-09T12:41:55;2.00;;;1.33;;
4992;SDS011;2514;53.524;10.166;2022-09-09T12:44:22;5.00;;;2.10;;
4992;SDS011;2514;53.524;10.166;2022-09-09T12:46:52;1.40;;;1.20;;
4992;SDS011;2514;53.524;10.166;2022-09-09T12:49:25;1.58;;;1.40;;
4992;SDS011;2514;53.524;10.166;2022-09-09T12:51:59;1.63;;;0.77;;
4992;SDS011;2514;53.524;10.166;2022-09-09T12:54:30;5.10;;;1.30;;
4992;SDS011;2514;53.524;10.166;2022-09-09T12:56:57;8.10;;;1.60;;
4992;SDS011;2514;53.524;10.166;2022-09-09T12:59:25;1.40;;;1.10;;
4992;SDS011;2514;53.524;10.166;2022-09-09T13:02:02;2.00;;;1.20;;
4992;SDS011;2514;53.524;10.166;2022-09-09T13:04:42;2.33;;;1.20;;
4992;SDS011;2514;53.524;10.166;2022-09-09T13:07:12;0.90;;;0.70;;
4992;SDS011;2514;53.524;10.166;2022-09-09T13:09:41;1.90;;;1.30;;
4992;SDS011;2514;53.524;10.166;2022-09-09T13:12:16;5.20;;;1.40;;
4992;SDS011;2514;53.524;10.166;2022-09-09T13:14:46;1.02;;;0.75;;
4992;SDS011;2514;53.524;10.166;2022-09-09T13:17:19;2.20;;;0.82;;
4992;SDS011;2514;53.524;10.166;2022-09-09T13:19:48;2.58;;;1.30;;
4992;SDS011;2514;53.524;10.166;2022-09-09T13:22:20;1.10;;;0.80;;
4992;SDS011;2514;53.524;10.166;2022-09-09T13:25:00;1.23;;;1.05;;
4992;SDS011;2514;53.524;10.166;2022-09-09T13:27:32;1.63;;;1.45;;
4992;SDS011;2514;53.524;10.166;2022-09-09T13:33:00;1.38;;;1.27;;
4992;SDS011;2514;53.524;10.166;2022-09-09T13:35:30;1.30;;;1.15;;
4992;SDS011;2514;53.524;10.166;2022-09-09T13:38:08;1.73;;;1.07;;
4992;SDS011;2514;53.524;10.166;2022-09-09T13:40:37;4.03;;;1.08;;
4992;SDS011;2514;53.524;10.166;2022-09-09T13:43:04;2.97;;;2.20;;
4992;SDS011;2514;53.524;10.166;2022-09-09T13:45:33;1.50;;;1.30;;
4992;SDS011;2514;53.524;10.166;2022-09-09T13:48:09;1.50;;;1.30;;
4992;SDS011;2514;53.524;10.166;2022-09-09T13:50:38;2.50;;;1.00;;
4992;SDS011;2514;53.524;10.166;2022-09-09T13:53:07;1.40;;;1.10;;
4992;SDS011;2514;53.524;10.166;2022-09-09T13:55:34;2.80;;;1.60;;
4992;SDS011;2514;53.524;10.166;2022-09-09T13:58:04;1.50;;;1.00;;
4992;SDS011;2514;53.524;10.166;2022-09-09T14:00:32;2.50;;;0.90;;
4992;SDS011;2514;53.524;10.166;2022-09-09T14:03:00;3.00;;;1.40;;
4992;SDS011;2514;53.524;10.166;2022-09-09T14:05:29;1.00;;;0.90;;
4992;SDS011;2514;53.524;10.166;2022-09-09T14:07:59;2.30;;;1.80;;
4992;SDS011;2514;53.524;10.166;2022-09-09T14:10:27;1.60;;;1.50;;
4992;SDS011;2514;53.524;10.166;2022-09-09T14:12:54;2.20;;;1.40;;
4992;SDS011;2514;53.524;10.166;2022-09-09T14:15:21;2.92;;;1.40;;
4992;SDS011;2514;53.524;10.166;2022-09-09T14:17:48;2.03;;;1.48;;
4992;SDS011;2514;53.524;10.166;2022-09-09T14:20:15;1.30;;;0.90;;
4992;SDS011;2514;53.524;10.166;2022-09-09T14:22:45;1.20;;;1.00;;
4992;SDS011;2514;53.524;10.166;2022-09-09T14:25:12;3.13;;;1.40;;
4992;SDS011;2514;53.524;10.166;2022-09-09T14:27:40;2.20;;;1.73;;
4992;SDS011;2514;53.524;10.166;2022-09-09T14:30:08;7.18;;;2.20;;
4992;SDS011;2514;53.524;10.166;2022-09-09T14:32:37;1.00;;;0.90;;
4992;SDS011;2514;53.524;10.166;2022-09-09T14:35:04;1.25;;;0.98;;
4992;SDS011;2514;53.524;10.166;2022-09-09T14:37:32;1.13;;;0.80;;
4992;SDS011;2514;53.524;10.166;2022-09-09T14:40:01;1.55;;;1.45;;
4992;SDS011;2514;53.524;10.166;2022-09-09T14:42:29;1.58;;;1.05;;
4992;SDS011;2514;53.524;10.166;2022-09-09T14:44:56;0.90;;;0.75;;
4992;SDS011;2514;53.524;10.166;2022-09-09T14:47:23;1.00;;;0.70;;
4992;SDS011;2514;53.524;10.166;2022-09-09T14:49:51;1.40;;;0.90;;
4992;SDS011;2514;53.524;10.166;2022-09-09T14:52:18;1.50;;;1.00;;
4992;SDS011;2514;53.524;10.166;2022-09-09T14:54:45;1.10;;;0.60;;
4992;SDS011;2514;53.524;10.166;2022-09-09T14:57:13;0.80;;;0.40;;
4992;SDS011;2514;53.524;10.166;2022-09-09T14:59:40;0.80;;;0.40;;
4992;SDS011;2514;53.524;10.166;2022-09-09T15:02:08;0.80;;;0.40;;
4992;SDS011;2514;53.524;10.166;2022-09-09T15:04:38;0.80;;;0.40;;
4992;SDS011;2514;53.524;10.166;2022-09-09T15:07:05;0.80;;;0.40;;
4992;SDS011;2514;53.524;10.166;2022-09-09T15:09:32;1.30;;;1.20;;
4992;SDS011;2514;53.524;10.166;2022-09-09T15:11:59;0.80;;;0.60;;
4992;SDS011;2514;53.524;10.166;2022-09-09T15:14:29;1.40;;;1.00;;
4992;SDS011;2514;53.524;10.166;2022-09-09T15:16:56;3.40;;;0.60;;
4992;SDS011;2514;53.524;10.166;2022-09-09T15:19:23;0.80;;;0.50;;
4992;SDS011;2514;53.524;10.166;2022-09-09T15:21:50;1.50;;;0.90;;
4992;SDS011;2514;53.524;10.166;2022-09-09T15:24:17;0.80;;;0.40;;
4992;SDS011;2514;53.524;10.166;2022-09-09T15:26:44;0.80;;;0.40;;
4992;SDS011;2514;53.524;10.166;2022-09-09T15:29:12;0.90;;;0.60;;
4992;SDS011;2514;53.524;10.166;2022-09-09T15:31:40;0.80;;;0.50;;
4992;SDS011;2514;53.524;10.166;2022-09-09T15:34:08;2.90;;;1.00;;
4992;SDS011;2514;53.524;10.166;2022-09-09T15:36:35;0.80;;;0.50;;